sensor_id;sensor_type;location;lat;lon;timestamp;P1;P2;P0
70554;PMS5003;58104;52.744;15.242;2023-08-17T00:01:37;9;9;
70554;PMS5003;58104;52.744;15.242;2023-08-17T00:04:02;9;8;
70554;PMS5003;58104;52.744;15.242;2023-08-17T00:06:28;8;8;
70554;PMS5003;58104;52.744;15.242;2023-08-17T00:08:53;8;8;
70554;PMS5003;58104;52.744;15.242;2023-08-17T00:11:18;9;7;
70554;PMS5003;58104;52.744;15.242;2023-08-17T00:13:44;8;8;
70554;PMS5003;58104;52.744;15.242;2023-08-17T00:16:09;8;8;
70554;PMS5003;58104;52.744;15.242;2023-08-17T00:18:34;9;8;
70554;PMS5003;58104;52.744;15.242;2023-08-17T00:21:00;11;9;
70554;PMS5003;58104;52.744;15.242;2023-08-17T00:23:25;13;12;
70554;PMS5003;58104;52.744;15.242;2023-08-17T00:25:50;12;9;
70554;PMS5003;58104;52.744;15.242;2023-08-17T00:28:15;7;7;
70554;PMS5003;58104;52.744;15.242;2023-08-17T00:30:41;9;8;
70554;PMS5003;58104;52.744;15.242;2023-08-17T00:33:06;9;9;
70554;PMS5003;58104;52.744;15.242;2023-08-17T00:35:31;8;7;
70554;PMS5003;58104;52.744;15.242;2023-08-17T00:37:57;9;9;
70554;PMS5003;58104;52.744;15.242;2023-08-17T00:40:22;9;9;
70554;PMS5003;58104;52.744;15.242;2023-08-17T00:42:47;7;5;
70554;PMS5003;58104;52.744;15.242;2023-08-17T00:45:13;8;8;
70554;PMS5003;58104;52.744;15.242;2023-08-17T00:47:38;6;6;
70554;PMS5003;58104;52.744;15.242;2023-08-17T00:50:04;10;8;
70554;PMS5003;58104;52.744;15.242;2023-08-17T00:52:29;8;8;
70554;PMS5003;58104;52.744;15.242;2023-08-17T00:54:55;8;8;
70554;PMS5003;58104;52.744;15.242;2023-08-17T00:57:19;11;9;
70554;PMS5003;58104;52.744;15.242;2023-08-17T00:59:45;5;5;
70554;PMS5003;58104;52.744;15.242;2023-08-17T01:02:10;8;7;
70554;PMS5003;58104;52.744;15.242;2023-08-17T01:04:35;9;8;
70554;PMS5003;58104;52.744;15.242;2023-08-17T01:07:01;8;8;
70554;PMS5003;58104;52.744;15.242;2023-08-17T01:09:26;7;7;
70554;PMS5003;58104;52.744;15.242;2023-08-17T01:11:53;11;7;
70554;PMS5003;58104;52.744;15.242;2023-08-17T01:14:19;9;7;
70554;PMS5003;58104;52.744;15.242;2023-08-17T01:16:43;7;7;
70554;PMS5003;58104;52.744;15.242;2023-08-17T01:19:08;9;9;
70554;PMS5003;58104;52.744;15.242;2023-08-17T01:21:35;12;12;
70554;PMS5003;58104;52.744;15.242;2023-08-17T01:23:57;8;7;
70554;PMS5003;58104;52.744;15.242;2023-08-17T01:26:22;10;9;
70554;PMS5003;58104;52.744;15.242;2023-08-17T01:28:48;13;12;
70554;PMS5003;58104;52.744;15.242;2023-08-17T01:31:15;9;7;
70554;PMS5003;58104;52.744;15.242;2023-08-17T01:33:40;7;7;
70554;PMS5003;58104;52.744;15.242;2023-08-17T01:36:06;8;8;
70554;PMS5003;58104;52.744;15.242;2023-08-17T01:38:29;6;6;
70554;PMS5003;58104;52.744;15.242;2023-08-17T01:40:55;7;7;
70554;PMS5003;58104;52.744;15.242;2023-08-17T01:43:20;8;8;
70554;PMS5003;58104;52.744;15.242;2023-08-17T01:45:45;8;8;
70554;PMS5003;58104;52.744;15.242;2023-08-17T01:48:11;10;7;
70554;PMS5003;58104;52.744;15.242;2023-08-17T01:50:36;8;8;
70554;PMS5003;58104;52.744;15.242;2023-08-17T01:53:01;5;5;
70554;PMS5003;58104;52.744;15.242;2023-08-17T01:55:26;8;8;
70554;PMS5003;58104;52.744;15.242;2023-08-17T01:57:52;12;10;
70554;PMS5003;58104;52.744;15.242;2023-08-17T02:00:17;8;8;
70554;PMS5003;58104;52.744;15.242;2023-08-17T02:02:43;8;8;
70554;PMS5003;58104;52.744;15.242;2023-08-17T02:05:08;8;7;
70554;PMS5003;58104;52.744;15.242;2023-08-17T02:07:33;9;9;
70554;PMS5003;58104;52.744;15.242;2023-08-17T02:09:59;7;7;
70554;PMS5003;58104;52.744;15.242;2023-08-17T02:12:24;8;8;
70554;PMS5003;58104;52.744;15.242;2023-08-17T02:14:49;8;8;
70554;PMS5003;58104;52.744;15.242;2023-08-17T02:17:15;7;7;
70554;PMS5003;58104;52.744;15.242;2023-08-17T02:19:40;8;8;
70554;PMS5003;58104;52.744;15.242;2023-08-17T02:22:05;8;8;
70554;PMS5003;58104;52.744;15.242;2023-08-17T02:24:31;8;8;
70554;PMS5003;58104;52.744;15.242;2023-08-17T02:26:56;10;10;
70554;PMS5003;58104;52.744;15.242;2023-08-17T02:29:21;7;7;
70554;PMS5003;58104;52.744;15.242;2023-08-17T02:31:47;8;8;
70554;PMS5003;58104;52.744;15.242;2023-08-17T02:34:12;7;7;
70554;PMS5003;58104;52.744;15.242;2023-08-17T02:36:37;6;6;
70554;PMS5003;58104;52.744;15.242;2023-08-17T02:39:03;8;8;
70554;PMS5003;58104;52.744;15.242;2023-08-17T02:41:28;9;9;
70554;PMS5003;58104;52.744;15.242;2023-08-17T02:43:53;9;9;
70554;PMS5003;58104;52.744;15.242;2023-08-17T02:46:19;10;10;
70554;PMS5003;58104;52.744;15.242;2023-08-17T02:48:44;10;9;
70554;PMS5003;58104;52.744;15.242;2023-08-17T02:51:09;10;9;
70554;PMS5003;58104;52.744;15.242;2023-08-17T02:53:35;8;8;
70554;PMS5003;58104;52.744;15.242;2023-08-17T02:56:00;7;7;
70554;PMS5003;58104;52.744;15.242;2023-08-17T02:58:25;13;11;
70554;PMS5003;58104;52.744;15.242;2023-08-17T03:00:51;9;9;
70554;PMS5003;58104;52.744;15.242;2023-08-17T03:03:16;9;8;
70554;PMS5003;58104;52.744;15.242;2023-08-17T03:05:41;10;9;
70554;PMS5003;58104;52.744;15.242;2023-08-17T03:08:07;8;8;
70554;PMS5003;58104;52.744;15.242;2023-08-17T03:10:32;9;8;
70554;PMS5003;58104;52.744;15.242;2023-08-17T03:12:58;8;8;
70554;PMS5003;58104;52.744;15.242;2023-08-17T03:15:23;8;8;
70554;PMS5003;58104;52.744;15.242;2023-08-17T03:17:48;9;8;
70554;PMS5003;58104;52.744;15.242;2023-08-17T03:20:13;10;9;
70554;PMS5003;58104;52.744;15.242;2023-08-17T03:22:39;10;9;
70554;PMS5003;58104;52.744;15.242;2023-08-17T03:25:04;11;9;
70554;PMS5003;58104;52.744;15.242;2023-08-17T03:27:29;8;8;
70554;PMS5003;58104;52.744;15.242;2023-08-17T03:29:55;8;8;
70554;PMS5003;58104;52.744;15.242;2023-08-17T03:32:20;10;8;
70554;PMS5003;58104;52.744;15.242;2023-08-17T03:34:45;10;10;
70554;PMS5003;58104;52.744;15.242;2023-08-17T03:37:11;7;7;
70554;PMS5003;58104;52.744;15.242;2023-08-17T03:39:36;10;10;
70554;PMS5003;58104;52.744;15.242;2023-08-17T03:42:01;10;10;
70554;PMS5003;58104;52.744;15.242;2023-08-17T03:44:27;10;10;
70554;PMS5003;58104;52.744;15.242;2023-08-17T03:46:52;12;9;
70554;PMS5003;58104;52.744;15.242;2023-08-17T03:49:17;8;7;
70554;PMS5003;58104;52.744;15.242;2023-08-17T03:51:43;10;10;
70554;PMS5003;58104;52.744;15.242;2023-08-17T03:54:08;11;11;
70554;PMS5003;58104;52.744;15.242;2023-08-17T03:56:33;6;6;
70554;PMS5003;58104;52.744;15.242;2023-08-17T03:58:59;8;8;
70554;PMS5003;58104;52.744;15.242;2023-08-17T04:01:24;9;9;
70554;PMS5003;58104;52.744;15.242;2023-08-17T04:03:49;8;8;
70554;PMS5003;58104;52.744;15.242;2023-08-17T04:06:15;8;8;
70554;PMS5003;58104;52.744;15.242;2023-08-17T04:08:40;10;9;
70554;PMS5003;58104;52.744;15.242;2023-08-17T04:11:05;9;9;
70554;PMS5003;58104;52.744;15.242;2023-08-17T04:13:31;9;9;
70554;PMS5003;58104;52.744;15.242;2023-08-17T04:15:56;10;10;
70554;PMS5003;58104;52.744;15.242;2023-08-17T04:18:21;11;9;
70554;PMS5003;58104;52.744;15.242;2023-08-17T04:20:46;9;9;
70554;PMS5003;58104;52.744;15.242;2023-08-17T04:23:12;8;8;
70554;PMS5003;58104;52.744;15.242;2023-08-17T04:25:37;9;9;
70554;PMS5003;58104;52.744;15.242;2023-08-17T04:28:03;9;9;
70554;PMS5003;58104;52.744;15.242;2023-08-17T04:30:27;9;8;
70554;PMS5003;58104;52.744;15.242;2023-08-17T04:32:53;12;10;
70554;PMS5003;58104;52.744;15.242;2023-08-17T04:35:18;9;8;
70554;PMS5003;58104;52.744;15.242;2023-08-17T04:37:44;9;9;
70554;PMS5003;58104;52.744;15.242;2023-08-17T04:40:09;13;12;
70554;PMS5003;58104;52.744;15.242;2023-08-17T04:42:34;13;12;
70554;PMS5003;58104;52.744;15.242;2023-08-17T04:45:00;12;10;
70554;PMS5003;58104;52.744;15.242;2023-08-17T04:47:25;11;10;
70554;PMS5003;58104;52.744;15.242;2023-08-17T04:49:50;10;8;
70554;PMS5003;58104;52.744;15.242;2023-08-17T04:52:16;8;8;
70554;PMS5003;58104;52.744;15.242;2023-08-17T04:54:41;8;8;
70554;PMS5003;58104;52.744;15.242;2023-08-17T04:57:06;8;8;
70554;PMS5003;58104;52.744;15.242;2023-08-17T04:59:32;10;9;
70554;PMS5003;58104;52.744;15.242;2023-08-17T05:01:57;9;9;
70554;PMS5003;58104;52.744;15.242;2023-08-17T05:04:23;11;10;
70554;PMS5003;58104;52.744;15.242;2023-08-17T05:06:48;11;8;
70554;PMS5003;58104;52.744;15.242;2023-08-17T05:09:13;8;8;
70554;PMS5003;58104;52.744;15.242;2023-08-17T05:11:39;8;8;
70554;PMS5003;58104;52.744;15.242;2023-08-17T05:14:04;11;8;
70554;PMS5003;58104;52.744;15.242;2023-08-17T05:16:29;9;9;
70554;PMS5003;58104;52.744;15.242;2023-08-17T05:18:54;10;10;
70554;PMS5003;58104;52.744;15.242;2023-08-17T05:21:20;10;10;
70554;PMS5003;58104;52.744;15.242;2023-08-17T05:23:46;10;9;
70554;PMS5003;58104;52.744;15.242;2023-08-17T05:26:11;12;12;
70554;PMS5003;58104;52.744;15.242;2023-08-17T05:28:36;10;10;
70554;PMS5003;58104;52.744;15.242;2023-08-17T05:31:03;10;10;
70554;PMS5003;58104;52.744;15.242;2023-08-17T05:33:27;6;6;
70554;PMS5003;58104;52.744;15.242;2023-08-17T05:35:53;9;9;
70554;PMS5003;58104;52.744;15.242;2023-08-17T05:38:18;11;10;
70554;PMS5003;58104;52.744;15.242;2023-08-17T05:40:43;7;7;
70554;PMS5003;58104;52.744;15.242;2023-08-17T05:43:08;11;11;
70554;PMS5003;58104;52.744;15.242;2023-08-17T05:45:34;8;8;
70554;PMS5003;58104;52.744;15.242;2023-08-17T05:47:59;7;7;
70554;PMS5003;58104;52.744;15.242;2023-08-17T05:50:24;6;6;
70554;PMS5003;58104;52.744;15.242;2023-08-17T05:52:50;6;6;
70554;PMS5003;58104;52.744;15.242;2023-08-17T05:55:15;7;6;
70554;PMS5003;58104;52.744;15.242;2023-08-17T05:57:40;11;11;
70554;PMS5003;58104;52.744;15.242;2023-08-17T06:00:06;7;7;
70554;PMS5003;58104;52.744;15.242;2023-08-17T06:02:30;7;7;
70554;PMS5003;58104;52.744;15.242;2023-08-17T06:04:56;8;8;
70554;PMS5003;58104;52.744;15.242;2023-08-17T06:07:21;5;5;
70554;PMS5003;58104;52.744;15.242;2023-08-17T06:09:46;7;7;
70554;PMS5003;58104;52.744;15.242;2023-08-17T06:12:12;7;6;
70554;PMS5003;58104;52.744;15.242;2023-08-17T06:14:37;6;6;
70554;PMS5003;58104;52.744;15.242;2023-08-17T06:17:02;7;7;
70554;PMS5003;58104;52.744;15.242;2023-08-17T06:19:28;6;6;
70554;PMS5003;58104;52.744;15.242;2023-08-17T06:21:53;6;6;
70554;PMS5003;58104;52.744;15.242;2023-08-17T06:24:18;7;7;
70554;PMS5003;58104;52.744;15.242;2023-08-17T06:26:44;11;8;
70554;PMS5003;58104;52.744;15.242;2023-08-17T06:29:09;7;7;
70554;PMS5003;58104;52.744;15.242;2023-08-17T06:31:34;6;6;
70554;PMS5003;58104;52.744;15.242;2023-08-17T06:34:00;6;6;
70554;PMS5003;58104;52.744;15.242;2023-08-17T06:36:25;7;5;
70554;PMS5003;58104;52.744;15.242;2023-08-17T06:38:50;8;6;
70554;PMS5003;58104;52.744;15.242;2023-08-17T06:41:16;7;6;
70554;PMS5003;58104;52.744;15.242;2023-08-17T06:43:41;11;8;
70554;PMS5003;58104;52.744;15.242;2023-08-17T06:46:06;8;7;
70554;PMS5003;58104;52.744;15.242;2023-08-17T06:48:31;6;6;
70554;PMS5003;58104;52.744;15.242;2023-08-17T06:50:57;6;6;
70554;PMS5003;58104;52.744;15.242;2023-08-17T06:53:22;6;6;
70554;PMS5003;58104;52.744;15.242;2023-08-17T06:55:47;8;8;
70554;PMS5003;58104;52.744;15.242;2023-08-17T06:58:13;7;7;
70554;PMS5003;58104;52.744;15.242;2023-08-17T07:00:38;5;5;
70554;PMS5003;58104;52.744;15.242;2023-08-17T07:03:04;6;6;
70554;PMS5003;58104;52.744;15.242;2023-08-17T07:05:29;7;7;
70554;PMS5003;58104;52.744;15.242;2023-08-17T07:07:54;7;5;
70554;PMS5003;58104;52.744;15.242;2023-08-17T07:10:20;8;6;
70554;PMS5003;58104;52.744;15.242;2023-08-17T07:12:45;10;7;
70554;PMS5003;58104;52.744;15.242;2023-08-17T07:15:10;8;7;
70554;PMS5003;58104;52.744;15.242;2023-08-17T07:17:35;9;9;
70554;PMS5003;58104;52.744;15.242;2023-08-17T07:20:01;7;6;
70554;PMS5003;58104;52.744;15.242;2023-08-17T07:22:26;9;7;
70554;PMS5003;58104;52.744;15.242;2023-08-17T07:24:51;9;8;
70554;PMS5003;58104;52.744;15.242;2023-08-17T07:27:17;8;8;
70554;PMS5003;58104;52.744;15.242;2023-08-17T07:29:43;8;7;
70554;PMS5003;58104;52.744;15.242;2023-08-17T07:32:08;7;7;
70554;PMS5003;58104;52.744;15.242;2023-08-17T07:34:33;6;6;
70554;PMS5003;58104;52.744;15.242;2023-08-17T07:36:59;5;5;
70554;PMS5003;58104;52.744;15.242;2023-08-17T07:39:24;11;9;
70554;PMS5003;58104;52.744;15.242;2023-08-17T07:41:49;7;7;
70554;PMS5003;58104;52.744;15.242;2023-08-17T07:44:15;8;7;
70554;PMS5003;58104;52.744;15.242;2023-08-17T07:46:40;8;8;
70554;PMS5003;58104;52.744;15.242;2023-08-17T07:49:05;9;7;
70554;PMS5003;58104;52.744;15.242;2023-08-17T07:51:31;9;9;
70554;PMS5003;58104;52.744;15.242;2023-08-17T07:53:56;10;6;
70554;PMS5003;58104;52.744;15.242;2023-08-17T07:56:21;8;8;
70554;PMS5003;58104;52.744;15.242;2023-08-17T07:58:46;12;10;
70554;PMS5003;58104;52.744;15.242;2023-08-17T08:01:12;7;7;
70554;PMS5003;58104;52.744;15.242;2023-08-17T08:03:37;9;9;
70554;PMS5003;58104;52.744;15.242;2023-08-17T08:06:02;10;9;
70554;PMS5003;58104;52.744;15.242;2023-08-17T08:08:29;13;8;
70554;PMS5003;58104;52.744;15.242;2023-08-17T08:10:53;9;8;
70554;PMS5003;58104;52.744;15.242;2023-08-17T08:13:18;14;11;
70554;PMS5003;58104;52.744;15.242;2023-08-17T08:15:44;8;8;
70554;PMS5003;58104;52.744;15.242;2023-08-17T08:18:09;9;8;
70554;PMS5003;58104;52.744;15.242;2023-08-17T08:20:34;10;10;
70554;PMS5003;58104;52.744;15.242;2023-08-17T08:23:00;7;7;
70554;PMS5003;58104;52.744;15.242;2023-08-17T08:25:25;9;9;
70554;PMS5003;58104;52.744;15.242;2023-08-17T08:27:50;11;9;
70554;PMS5003;58104;52.744;15.242;2023-08-17T08:30:16;11;11;
70554;PMS5003;58104;52.744;15.242;2023-08-17T08:32:41;9;9;
70554;PMS5003;58104;52.744;15.242;2023-08-17T08:35:06;9;9;
70554;PMS5003;58104;52.744;15.242;2023-08-17T08:37:31;10;10;
70554;PMS5003;58104;52.744;15.242;2023-08-17T08:39:57;13;11;
70554;PMS5003;58104;52.744;15.242;2023-08-17T08:42:22;10;10;
70554;PMS5003;58104;52.744;15.242;2023-08-17T08:44:48;10;10;
70554;PMS5003;58104;52.744;15.242;2023-08-17T08:47:13;9;7;
70554;PMS5003;58104;52.744;15.242;2023-08-17T08:49:38;8;8;
70554;PMS5003;58104;52.744;15.242;2023-08-17T08:52:03;10;10;
70554;PMS5003;58104;52.744;15.242;2023-08-17T08:54:29;9;7;
70554;PMS5003;58104;52.744;15.242;2023-08-17T08:56:57;14;11;
70554;PMS5003;58104;52.744;15.242;2023-08-17T08:59:20;10;9;
70554;PMS5003;58104;52.744;15.242;2023-08-17T09:01:45;10;10;
70554;PMS5003;58104;52.744;15.242;2023-08-17T09:04:10;11;11;
70554;PMS5003;58104;52.744;15.242;2023-08-17T09:06:36;12;10;
70554;PMS5003;58104;52.744;15.242;2023-08-17T09:09:02;9;9;
70554;PMS5003;58104;52.744;15.242;2023-08-17T09:11:27;8;8;
70554;PMS5003;58104;52.744;15.242;2023-08-17T09:13:52;15;13;
70554;PMS5003;58104;52.744;15.242;2023-08-17T09:16:17;11;11;
70554;PMS5003;58104;52.744;15.242;2023-08-17T09:18:42;11;10;
70554;PMS5003;58104;52.744;15.242;2023-08-17T09:21:07;11;9;
70554;PMS5003;58104;52.744;15.242;2023-08-17T09:23:32;8;8;
70554;PMS5003;58104;52.744;15.242;2023-08-17T09:25:58;11;11;
70554;PMS5003;58104;52.744;15.242;2023-08-17T09:28:23;12;12;
70554;PMS5003;58104;52.744;15.242;2023-08-17T09:30:49;14;12;
70554;PMS5003;58104;52.744;15.242;2023-08-17T09:33:14;10;10;
70554;PMS5003;58104;52.744;15.242;2023-08-17T09:35:40;13;11;
70554;PMS5003;58104;52.744;15.242;2023-08-17T09:38:05;11;11;
70554;PMS5003;58104;52.744;15.242;2023-08-17T09:40:30;11;11;
70554;PMS5003;58104;52.744;15.242;2023-08-17T09:42:55;13;13;
70554;PMS5003;58104;52.744;15.242;2023-08-17T09:45:21;12;11;
70554;PMS5003;58104;52.744;15.242;2023-08-17T09:47:46;15;15;
70554;PMS5003;58104;52.744;15.242;2023-08-17T09:50:12;13;12;
70554;PMS5003;58104;52.744;15.242;2023-08-17T09:52:38;11;11;
70554;PMS5003;58104;52.744;15.242;2023-08-17T09:55:02;12;12;
70554;PMS5003;58104;52.744;15.242;2023-08-17T09:57:27;13;12;
70554;PMS5003;58104;52.744;15.242;2023-08-17T09:59:52;11;11;
70554;PMS5003;58104;52.744;15.242;2023-08-17T10:02:18;12;12;
70554;PMS5003;58104;52.744;15.242;2023-08-17T10:04:43;15;15;
70554;PMS5003;58104;52.744;15.242;2023-08-17T10:07:08;12;12;
70554;PMS5003;58104;52.744;15.242;2023-08-17T10:09:34;14;13;
70554;PMS5003;58104;52.744;15.242;2023-08-17T10:12:00;12;12;
70554;PMS5003;58104;52.744;15.242;2023-08-17T10:14:27;13;13;
70554;PMS5003;58104;52.744;15.242;2023-08-17T10:16:50;13;13;
70554;PMS5003;58104;52.744;15.242;2023-08-17T10:19:18;14;14;
70554;PMS5003;58104;52.744;15.242;2023-08-17T10:21:42;14;11;
70554;PMS5003;58104;52.744;15.242;2023-08-17T10:24:06;12;12;
70554;PMS5003;58104;52.744;15.242;2023-08-17T10:26:31;16;14;
70554;PMS5003;58104;52.744;15.242;2023-08-17T10:28:56;13;13;
70554;PMS5003;58104;52.744;15.242;2023-08-17T10:31:22;14;12;
70554;PMS5003;58104;52.744;15.242;2023-08-17T10:33:47;12;12;
70554;PMS5003;58104;52.744;15.242;2023-08-17T10:36:12;14;13;
70554;PMS5003;58104;52.744;15.242;2023-08-17T10:38:38;13;13;
70554;PMS5003;58104;52.744;15.242;2023-08-17T10:41:09;16;13;
70554;PMS5003;58104;52.744;15.242;2023-08-17T10:43:32;11;11;
70554;PMS5003;58104;52.744;15.242;2023-08-17T10:45:54;14;11;
70554;PMS5003;58104;52.744;15.242;2023-08-17T10:48:24;14;12;
70554;PMS5003;58104;52.744;15.242;2023-08-17T10:50:44;11;11;
70554;PMS5003;58104;52.744;15.242;2023-08-17T10:53:10;10;10;
70554;PMS5003;58104;52.744;15.242;2023-08-17T10:55:35;17;13;
70554;PMS5003;58104;52.744;15.242;2023-08-17T10:57:59;12;12;
70554;PMS5003;58104;52.744;15.242;2023-08-17T11:00:25;15;12;
70554;PMS5003;58104;52.744;15.242;2023-08-17T11:02:52;16;12;
70554;PMS5003;58104;52.744;15.242;2023-08-17T11:05:18;12;12;
70554;PMS5003;58104;52.744;15.242;2023-08-17T11:07:41;12;11;
70554;PMS5003;58104;52.744;15.242;2023-08-17T11:10:11;11;10;
70554;PMS5003;58104;52.744;15.242;2023-08-17T11:12:31;14;12;
70554;PMS5003;58104;52.744;15.242;2023-08-17T11:14:57;13;13;
70554;PMS5003;58104;52.744;15.242;2023-08-17T11:17:22;12;11;
70554;PMS5003;58104;52.744;15.242;2023-08-17T11:19:47;11;11;
70554;PMS5003;58104;52.744;15.242;2023-08-17T11:22:12;9;9;
70554;PMS5003;58104;52.744;15.242;2023-08-17T11:24:38;9;9;
70554;PMS5003;58104;52.744;15.242;2023-08-17T11:27:03;13;10;
70554;PMS5003;58104;52.744;15.242;2023-08-17T11:29:31;14;10;
70554;PMS5003;58104;52.744;15.242;2023-08-17T11:31:54;12;12;
70554;PMS5003;58104;52.744;15.242;2023-08-17T11:34:19;12;10;
70554;PMS5003;58104;52.744;15.242;2023-08-17T11:36:45;11;11;
70554;PMS5003;58104;52.744;15.242;2023-08-17T11:39:10;17;15;
70554;PMS5003;58104;52.744;15.242;2023-08-17T11:41:36;10;10;
70554;PMS5003;58104;52.744;15.242;2023-08-17T11:44:01;10;9;
70554;PMS5003;58104;52.744;15.242;2023-08-17T11:46:26;11;11;
70554;PMS5003;58104;52.744;15.242;2023-08-17T11:48:51;12;12;
70554;PMS5003;58104;52.744;15.242;2023-08-17T11:51:18;11;11;
70554;PMS5003;58104;52.744;15.242;2023-08-17T11:53:42;10;10;
70554;PMS5003;58104;52.744;15.242;2023-08-17T11:56:07;13;12;
70554;PMS5003;58104;52.744;15.242;2023-08-17T11:58:40;12;10;
70554;PMS5003;58104;52.744;15.242;2023-08-17T12:00:59;11;9;
70554;PMS5003;58104;52.744;15.242;2023-08-17T12:03:24;12;12;
70554;PMS5003;58104;52.744;15.242;2023-08-17T12:05:50;9;9;
70554;PMS5003;58104;52.744;15.242;2023-08-17T12:08:16;9;9;
70554;PMS5003;58104;52.744;15.242;2023-08-17T12:10:41;10;10;
70554;PMS5003;58104;52.744;15.242;2023-08-17T12:13:10;10;9;
70554;PMS5003;58104;52.744;15.242;2023-08-17T12:15:33;10;10;
70554;PMS5003;58104;52.744;15.242;2023-08-17T12:17:58;11;10;
70554;PMS5003;58104;52.744;15.242;2023-08-17T12:20:23;8;8;
70554;PMS5003;58104;52.744;15.242;2023-08-17T12:22:48;9;9;
70554;PMS5003;58104;52.744;15.242;2023-08-17T12:25:13;13;10;
70554;PMS5003;58104;52.744;15.242;2023-08-17T12:27:38;11;10;
70554;PMS5003;58104;52.744;15.242;2023-08-17T12:30:04;9;9;
70554;PMS5003;58104;52.744;15.242;2023-08-17T12:32:29;8;8;
70554;PMS5003;58104;52.744;15.242;2023-08-17T12:34:54;9;9;
70554;PMS5003;58104;52.744;15.242;2023-08-17T12:37:20;10;10;
70554;PMS5003;58104;52.744;15.242;2023-08-17T12:39:45;11;10;
70554;PMS5003;58104;52.744;15.242;2023-08-17T12:42:10;11;11;
70554;PMS5003;58104;52.744;15.242;2023-08-17T12:44:36;12;10;
70554;PMS5003;58104;52.744;15.242;2023-08-17T12:47:01;8;8;
70554;PMS5003;58104;52.744;15.242;2023-08-17T12:49:26;10;10;
70554;PMS5003;58104;52.744;15.242;2023-08-17T12:51:52;9;9;
70554;PMS5003;58104;52.744;15.242;2023-08-17T12:54:17;9;9;
70554;PMS5003;58104;52.744;15.242;2023-08-17T12:56:42;13;13;
70554;PMS5003;58104;52.744;15.242;2023-08-17T12:59:08;12;11;
70554;PMS5003;58104;52.744;15.242;2023-08-17T13:01:33;11;11;
70554;PMS5003;58104;52.744;15.242;2023-08-17T13:03:58;12;11;
70554;PMS5003;58104;52.744;15.242;2023-08-17T13:06:24;14;10;
70554;PMS5003;58104;52.744;15.242;2023-08-17T13:08:49;9;8;
70554;PMS5003;58104;52.744;15.242;2023-08-17T13:11:15;12;9;
70554;PMS5003;58104;52.744;15.242;2023-08-17T13:13:41;9;9;
70554;PMS5003;58104;52.744;15.242;2023-08-17T13:16:06;10;10;
70554;PMS5003;58104;52.744;15.242;2023-08-17T13:18:31;10;10;
70554;PMS5003;58104;52.744;15.242;2023-08-17T13:20:57;10;10;
70554;PMS5003;58104;52.744;15.242;2023-08-17T13:23:22;12;11;
70554;PMS5003;58104;52.744;15.242;2023-08-17T13:25:47;14;13;
70554;PMS5003;58104;52.744;15.242;2023-08-17T13:28:12;14;11;
70554;PMS5003;58104;52.744;15.242;2023-08-17T13:30:38;12;10;
70554;PMS5003;58104;52.744;15.242;2023-08-17T13:33:03;14;11;
70554;PMS5003;58104;52.744;15.242;2023-08-17T13:35:29;14;12;
70554;PMS5003;58104;52.744;15.242;2023-08-17T13:37:54;14;13;
70554;PMS5003;58104;52.744;15.242;2023-08-17T13:40:19;14;14;
70554;PMS5003;58104;52.744;15.242;2023-08-17T13:42:44;11;11;
70554;PMS5003;58104;52.744;15.242;2023-08-17T13:45:09;14;12;
70554;PMS5003;58104;52.744;15.242;2023-08-17T13:47:35;16;14;
70554;PMS5003;58104;52.744;15.242;2023-08-17T13:50:00;13;13;
70554;PMS5003;58104;52.744;15.242;2023-08-17T13:52:25;14;14;
70554;PMS5003;58104;52.744;15.242;2023-08-17T13:54:51;15;15;
70554;PMS5003;58104;52.744;15.242;2023-08-17T13:57:16;21;18;
70554;PMS5003;58104;52.744;15.242;2023-08-17T13:59:41;17;16;
70554;PMS5003;58104;52.744;15.242;2023-08-17T14:02:07;19;18;
70554;PMS5003;58104;52.744;15.242;2023-08-17T14:04:32;23;19;
70554;PMS5003;58104;52.744;15.242;2023-08-17T14:06:57;30;28;
70554;PMS5003;58104;52.744;15.242;2023-08-17T14:09:23;26;22;
70554;PMS5003;58104;52.744;15.242;2023-08-17T14:11:48;28;24;
70554;PMS5003;58104;52.744;15.242;2023-08-17T14:14:14;30;27;
70554;PMS5003;58104;52.744;15.242;2023-08-17T14:16:39;33;28;
70554;PMS5003;58104;52.744;15.242;2023-08-17T14:19:04;23;21;
70554;PMS5003;58104;52.744;15.242;2023-08-17T14:21:29;26;25;
70554;PMS5003;58104;52.744;15.242;2023-08-17T14:23:55;20;17;
70554;PMS5003;58104;52.744;15.242;2023-08-17T14:26:20;25;24;
70554;PMS5003;58104;52.744;15.242;2023-08-17T14:28:45;17;16;
70554;PMS5003;58104;52.744;15.242;2023-08-17T14:31:10;19;18;
70554;PMS5003;58104;52.744;15.242;2023-08-17T14:33:36;17;17;
70554;PMS5003;58104;52.744;15.242;2023-08-17T14:36:01;21;20;
70554;PMS5003;58104;52.744;15.242;2023-08-17T14:38:27;22;22;
70554;PMS5003;58104;52.744;15.242;2023-08-17T14:40:52;18;16;
70554;PMS5003;58104;52.744;15.242;2023-08-17T14:43:17;17;16;
70554;PMS5003;58104;52.744;15.242;2023-08-17T14:45:42;17;17;
70554;PMS5003;58104;52.744;15.242;2023-08-17T14:48:07;20;19;
70554;PMS5003;58104;52.744;15.242;2023-08-17T14:50:35;16;16;
70554;PMS5003;58104;52.744;15.242;2023-08-17T14:53:01;16;16;
70554;PMS5003;58104;52.744;15.242;2023-08-17T14:55:26;17;17;
70554;PMS5003;58104;52.744;15.242;2023-08-17T14:57:51;18;14;
70554;PMS5003;58104;52.744;15.242;2023-08-17T15:00:17;14;14;
70554;PMS5003;58104;52.744;15.242;2023-08-17T15:02:42;16;15;
70554;PMS5003;58104;52.744;15.242;2023-08-17T15:05:08;21;18;
70554;PMS5003;58104;52.744;15.242;2023-08-17T15:07:33;13;13;
70554;PMS5003;58104;52.744;15.242;2023-08-17T15:09:59;16;15;
70554;PMS5003;58104;52.744;15.242;2023-08-17T15:12:24;16;14;
70554;PMS5003;58104;52.744;15.242;2023-08-17T15:14:49;15;13;
70554;PMS5003;58104;52.744;15.242;2023-08-17T15:17:15;17;17;
70554;PMS5003;58104;52.744;15.242;2023-08-17T15:19:41;16;16;
70554;PMS5003;58104;52.744;15.242;2023-08-17T15:22:07;18;16;
70554;PMS5003;58104;52.744;15.242;2023-08-17T15:24:32;15;14;
70554;PMS5003;58104;52.744;15.242;2023-08-17T15:26:57;13;12;
70554;PMS5003;58104;52.744;15.242;2023-08-17T15:29:23;14;14;
70554;PMS5003;58104;52.744;15.242;2023-08-17T15:31:48;17;16;
70554;PMS5003;58104;52.744;15.242;2023-08-17T15:34:13;14;14;
70554;PMS5003;58104;52.744;15.242;2023-08-17T15:36:39;14;14;
70554;PMS5003;58104;52.744;15.242;2023-08-17T15:39:04;11;11;
70554;PMS5003;58104;52.744;15.242;2023-08-17T15:41:30;15;14;
70554;PMS5003;58104;52.744;15.242;2023-08-17T15:43:55;14;14;
70554;PMS5003;58104;52.744;15.242;2023-08-17T15:46:20;15;15;
70554;PMS5003;58104;52.744;15.242;2023-08-17T15:48:46;12;12;
70554;PMS5003;58104;52.744;15.242;2023-08-17T15:51:11;14;11;
70554;PMS5003;58104;52.744;15.242;2023-08-17T15:53:36;14;13;
70554;PMS5003;58104;52.744;15.242;2023-08-17T15:56:01;15;15;
70554;PMS5003;58104;52.744;15.242;2023-08-17T15:58:27;13;13;
70554;PMS5003;58104;52.744;15.242;2023-08-17T16:00:52;15;14;
70554;PMS5003;58104;52.744;15.242;2023-08-17T16:03:17;15;14;